createdAt,value
2016-04-30T00:00:40.710Z,0
2016-04-30T00:01:40.963Z,0
2016-04-30T00:02:40.949Z,0
2016-04-30T00:03:41.967Z,0
2016-04-30T00:04:40.768Z,0
2016-04-30T00:05:40.707Z,0
2016-04-30T00:06:40.835Z,0
2016-04-30T00:07:40.822Z,0
2016-04-30T00:08:40.809Z,0
2016-04-30T00:09:40.609Z,0
2016-04-30T00:10:40.752Z,0
2016-04-30T00:11:40.598Z,0
2016-04-30T00:12:40.695Z,0
2016-04-30T00:13:40.510Z,0
2016-04-30T00:14:40.638Z,0
2016-04-30T00:15:40.593Z,0
2016-04-30T00:16:40.425Z,0
2016-04-30T00:17:40.567Z,0
2016-04-30T00:18:41.851Z,0
2016-04-30T00:19:40.370Z,0
2016-04-30T00:20:40.482Z,0
2016-04-30T00:21:40.453Z,0
2016-04-30T00:22:40.425Z,0
2016-04-30T00:23:40.428Z,0
2016-04-30T00:24:40.211Z,0
2016-04-30T00:25:40.200Z,0
2016-04-30T00:26:40.327Z,0
2016-04-30T00:27:40.142Z,0
2016-04-30T00:28:40.097Z,0
2016-04-30T00:29:40.069Z,0
2016-04-30T00:30:40.227Z,0
2016-04-30T00:31:40.044Z,0
2016-04-30T00:32:40.155Z,0
2016-04-30T00:33:40.033Z,0
2016-04-30T00:34:40.098Z,0
2016-04-30T00:35:39.913Z,0
2016-04-30T00:36:39.885Z,0
2016-04-30T00:37:40.013Z,0
2016-04-30T00:38:39.687Z,0
2016-04-30T00:39:39.814Z,0
2016-04-30T00:40:39.942Z,0
2016-04-30T00:41:39.898Z,0
2016-04-30T00:42:39.588Z,0
2016-04-30T00:43:39.701Z,0
2016-04-30T00:44:39.687Z,0
2016-04-30T00:45:39.799Z,0
2016-04-30T00:46:39.771Z,0
2016-04-30T00:47:39.742Z,0
2016-04-30T00:48:39.870Z,0
2016-04-30T00:49:39.545Z,0
2016-04-30T00:50:39.359Z,0
2016-04-30T00:51:39.659Z,0
2016-04-30T00:52:39.615Z,0
2016-04-30T00:53:39.431Z,0
2016-04-30T00:54:39.542Z,0
2016-04-30T00:55:39.373Z,0
2016-04-30T00:56:39.360Z,0
2016-04-30T00:57:39.472Z,0
2016-04-30T00:58:39.303Z,0
2016-04-30T00:59:39.275Z,0
2016-04-30T01:00:39.246Z,0
2016-04-30T01:01:39.358Z,0
2016-04-30T01:02:39.173Z,0
2016-04-30T01:03:39.427Z,0
2016-04-30T01:04:39.288Z,0
2016-04-30T01:05:39.134Z,0
2016-04-30T01:06:39.091Z,0
2016-04-30T01:07:39.218Z,0
2016-04-30T01:08:39.033Z,0
2016-04-30T01:09:38.848Z,0
2016-04-30T01:10:38.976Z,0
2016-04-30T01:11:39.088Z,0
2016-04-30T01:12:39.076Z,0
2016-04-30T01:13:38.890Z,0
2016-04-30T01:14:38.862Z,0
2016-04-30T01:15:38.990Z,0
2016-04-30T01:16:38.961Z,0
2016-04-30T01:17:38.932Z,0
2016-04-30T01:18:38.623Z,0
2016-04-30T01:19:38.750Z,0
2016-04-30T01:20:38.847Z,0
2016-04-30T01:21:38.678Z,0
2016-04-30T01:22:38.648Z,0
2016-04-30T01:23:38.792Z,0
2016-04-30T01:24:38.748Z,0
2016-04-30T01:25:38.735Z,0
2016-04-30T01:26:38.534Z,0
2016-04-30T01:27:38.678Z,0
2016-04-30T01:28:38.493Z,0
2016-04-30T01:29:38.605Z,0
2016-04-30T01:30:38.576Z,0
2016-04-30T01:31:38.563Z,0
2016-04-30T01:32:38.551Z,0
2016-04-30T01:33:38.632Z,0
2016-04-30T01:34:38.494Z,0
2016-04-30T01:35:38.449Z,0
2016-04-30T01:36:38.421Z,0
2016-04-30T01:37:38.408Z,0
2016-04-30T01:38:38.379Z,0
2016-04-30T01:39:38.351Z,0
2016-04-30T01:40:38.151Z,0
2016-04-30T01:41:38.278Z,0
2016-04-30T01:42:38.265Z,0
2016-04-30T01:43:38.080Z,0
2016-04-30T01:44:38.068Z,0
2016-04-30T01:45:38.180Z,0
2016-04-30T01:46:38.167Z,0
2016-04-30T01:47:38.137Z,0
2016-04-30T01:48:39.109Z,0
2016-04-30T01:49:38.096Z,0
2016-04-30T01:50:38.036Z,0
2016-04-30T01:51:38.024Z,0
2016-04-30T01:52:37.870Z,0
2016-04-30T01:53:37.967Z,0
2016-04-30T01:54:37.938Z,0
2016-04-30T01:55:37.909Z,0
2016-04-30T01:56:37.740Z,0
2016-04-30T01:57:37.867Z,0
2016-04-30T01:58:37.855Z,0
2016-04-30T01:59:37.514Z,0
2016-04-30T02:00:37.642Z,0
2016-04-30T02:01:37.753Z,0
2016-04-30T02:02:37.585Z,0
2016-04-30T02:03:37.775Z,0
2016-04-30T02:04:37.512Z,0
2016-04-30T02:05:37.655Z,0
2016-04-30T02:06:37.471Z,0
2016-04-30T02:07:37.441Z,0
2016-04-30T02:08:37.585Z,0
2016-04-30T02:09:37.525Z,0
2016-04-30T02:10:37.527Z,0
2016-04-30T02:11:37.327Z,0
2016-04-30T02:12:37.487Z,0
2016-04-30T02:13:37.443Z,0
2016-04-30T02:14:37.273Z,0
2016-04-30T02:15:37.244Z,0
2016-04-30T02:16:37.215Z,0
2016-04-30T02:17:37.360Z,0
2016-04-30T02:18:38.940Z,0
2016-04-30T02:19:37.287Z,0
2016-04-30T02:20:37.101Z,0
2016-04-30T02:21:37.229Z,0
2016-04-30T02:22:37.045Z,0
2016-04-30T02:23:37.017Z,0
2016-04-30T02:24:36.987Z,0
2016-04-30T02:25:36.975Z,0
2016-04-30T02:26:37.102Z,0
2016-04-30T02:27:37.073Z,0
2016-04-30T02:28:36.873Z,0
2016-04-30T02:29:37.032Z,0
2016-04-30T02:30:36.848Z,0
2016-04-30T02:31:36.803Z,0
2016-04-30T02:32:36.931Z,0
2016-04-30T02:33:36.777Z,0
2016-04-30T02:34:37.061Z,0
2016-04-30T02:35:36.860Z,0
2016-04-30T02:36:36.863Z,0
2016-04-30T02:37:36.804Z,0
2016-04-30T02:38:36.619Z,0
2016-04-30T02:39:36.746Z,0
2016-04-30T02:40:36.718Z,0
2016-04-30T02:41:36.690Z,0
2016-04-30T02:42:36.676Z,0
2016-04-30T02:43:36.648Z,0
2016-04-30T02:44:36.619Z,0
2016-04-30T02:45:36.435Z,0
2016-04-30T02:46:36.562Z,0
2016-04-30T02:47:36.534Z,0
2016-04-30T02:48:36.348Z,0
2016-04-30T02:49:36.352Z,0
2016-04-30T02:50:36.464Z,0
2016-04-30T02:51:36.435Z,0
2016-04-30T02:52:36.390Z,0
2016-04-30T02:53:36.378Z,0
2016-04-30T02:54:36.052Z,0
2016-04-30T02:55:36.164Z,0
2016-04-30T02:56:36.293Z,0
2016-04-30T02:57:35.811Z,0
2016-04-30T02:58:36.251Z,0
2016-04-30T02:59:36.222Z,0
2016-04-30T03:00:36.036Z,0
2016-04-30T03:01:36.149Z,0
2016-04-30T03:02:35.667Z,0
2016-04-30T03:03:36.108Z,0
2016-04-30T03:04:35.939Z,0
2016-04-30T03:05:36.050Z,0
2016-04-30T03:06:36.038Z,0
2016-04-30T03:07:35.838Z,0
2016-04-30T03:08:35.981Z,0
2016-04-30T03:09:35.936Z,0
2016-04-30T03:10:35.908Z,0
2016-04-30T03:11:35.895Z,0
2016-04-30T03:12:35.726Z,0
2016-04-30T03:13:35.822Z,0
2016-04-30T03:14:35.684Z,0
2016-04-30T03:15:35.782Z,0
2016-04-30T03:16:35.752Z,0
2016-04-30T03:17:35.583Z,0
2016-04-30T03:18:35.695Z,0
2016-04-30T03:19:35.542Z,0
2016-04-30T03:20:35.653Z,0
2016-04-30T03:21:35.625Z,0
2016-04-30T03:22:35.596Z,0
2016-04-30T03:23:35.568Z,0
2016-04-30T03:24:35.539Z,0
2016-04-30T03:25:35.512Z,0
2016-04-30T03:26:35.514Z,0
2016-04-30T03:27:35.297Z,0
2016-04-30T03:28:35.300Z,0
2016-04-30T03:29:35.412Z,0
2016-04-30T03:30:35.103Z,0
2016-04-30T03:31:35.199Z,0
2016-04-30T03:32:35.391Z,0
2016-04-30T03:33:35.399Z,0
2016-04-30T03:34:35.441Z,0
2016-04-30T03:35:35.449Z,0
2016-04-30T03:36:35.489Z,0
2016-04-30T03:37:35.482Z,0
2016-04-30T03:38:35.315Z,0
2016-04-30T03:39:35.447Z,0
2016-04-30T03:40:35.452Z,0
2016-04-30T03:41:35.302Z,0
2016-04-30T03:42:35.281Z,0
2016-04-30T03:43:35.400Z,0
2016-04-30T03:44:35.378Z,0
2016-04-30T03:45:35.388Z,0
2016-04-30T03:46:35.351Z,0
2016-04-30T03:47:35.309Z,0
2016-04-30T03:48:35.299Z,0
2016-04-30T03:49:36.492Z,0
2016-04-30T03:50:35.247Z,0
2016-04-30T03:51:35.222Z,0
2016-04-30T03:52:35.242Z,0
2016-04-30T03:53:34.854Z,0
2016-04-30T03:54:34.827Z,0
2016-04-30T03:55:35.111Z,0
2016-04-30T03:56:35.098Z,0
2016-04-30T03:57:35.070Z,0
2016-04-30T03:58:35.059Z,0
2016-04-30T03:59:35.014Z,0
2016-04-30T04:00:34.986Z,0
2016-04-30T04:01:34.958Z,0
2016-04-30T04:02:34.633Z,0
2016-04-30T04:03:34.902Z,0
2016-04-30T04:04:34.591Z,0
2016-04-30T04:05:34.687Z,0
2016-04-30T04:06:34.674Z,0
2016-04-30T04:07:34.801Z,0
2016-04-30T04:08:34.774Z,0
2016-04-30T04:09:34.590Z,0
2016-04-30T04:10:34.592Z,0
2016-04-30T04:11:34.376Z,0
2016-04-30T04:12:34.659Z,0
2016-04-30T04:13:34.475Z,0
2016-04-30T04:14:34.446Z,0
2016-04-30T04:15:34.434Z,0
2016-04-30T04:16:34.576Z,5
2016-04-30T04:17:34.376Z,5
2016-04-30T04:18:34.503Z,5
2016-04-30T04:19:34.444Z,5
2016-04-30T04:20:34.290Z,5
2016-04-30T04:21:34.418Z,5
2016-04-30T04:22:34.249Z,5
2016-04-30T04:23:34.236Z,5
2016-04-30T04:24:33.894Z,5
2016-04-30T04:25:34.335Z,5
2016-04-30T04:26:34.135Z,5
2016-04-30T04:27:33.950Z,5
2016-04-30T04:28:34.234Z,5
2016-04-30T04:29:34.221Z,5
2016-04-30T04:30:34.177Z,10
2016-04-30T04:31:34.148Z,10
2016-04-30T04:32:34.119Z,10
2016-04-30T04:33:34.106Z,10
2016-04-30T04:34:35.532Z,10
2016-04-30T04:35:33.737Z,10
2016-04-30T04:36:34.005Z,15
2016-04-30T04:37:34.008Z,15
2016-04-30T04:38:33.995Z,15
2016-04-30T04:39:33.795Z,15
2016-04-30T04:40:33.907Z,15
2016-04-30T04:41:33.909Z,15
2016-04-30T04:42:33.865Z,15
2016-04-30T04:43:33.837Z,15
2016-04-30T04:44:33.667Z,15
2016-04-30T04:45:33.779Z,15
2016-04-30T04:46:33.595Z,20
2016-04-30T04:47:33.567Z,20
2016-04-30T04:48:33.709Z,20
2016-04-30T04:49:33.431Z,20
2016-04-30T04:50:33.495Z,20
2016-04-30T04:51:33.623Z,20
2016-04-30T04:52:33.438Z,20
2016-04-30T04:53:33.254Z,20
2016-04-30T04:54:33.538Z,20
2016-04-30T04:55:33.213Z,15
2016-04-30T04:56:33.496Z,15
2016-04-30T04:57:33.468Z,15
2016-04-30T04:58:33.283Z,15
2016-04-30T04:59:33.130Z,15
2016-04-30T05:00:33.242Z,15
2016-04-30T05:01:33.354Z,15
2016-04-30T05:02:33.169Z,15
2016-04-30T05:03:33.171Z,15
2016-04-30T05:04:33.315Z,15
2016-04-30T05:05:33.099Z,15
2016-04-30T05:06:33.055Z,15
2016-04-30T05:07:33.041Z,20
2016-04-30T05:08:33.013Z,20
2016-04-30T05:09:32.828Z,20
2016-04-30T05:10:33.112Z,20
2016-04-30T05:11:33.099Z,20
2016-04-30T05:12:33.071Z,20
2016-04-30T05:13:33.026Z,25
2016-04-30T05:14:33.014Z,25
2016-04-30T05:15:32.845Z,25
2016-04-30T05:16:32.972Z,25
2016-04-30T05:17:32.772Z,25
2016-04-30T05:18:32.900Z,30
2016-04-30T05:19:33.215Z,30
2016-04-30T05:20:32.701Z,30
2016-04-30T05:21:32.517Z,35
2016-04-30T05:22:32.800Z,35
2016-04-30T05:23:32.616Z,35
2016-04-30T05:24:32.744Z,40
2016-04-30T05:25:32.575Z,40
2016-04-30T05:26:32.530Z,40
2016-04-30T05:27:32.658Z,45
2016-04-30T05:28:32.489Z,45
2016-04-30T05:29:32.600Z,50
2016-04-30T05:30:32.588Z,50
2016-04-30T05:31:32.544Z,50
2016-04-30T05:32:32.374Z,50
2016-04-30T05:33:32.549Z,50
2016-04-30T05:34:32.661Z,50
2016-04-30T05:35:32.304Z,50
2016-04-30T05:36:32.433Z,50
2016-04-30T05:37:32.247Z,50
2016-04-30T05:38:32.375Z,50
2016-04-30T05:39:32.346Z,50
2016-04-30T05:40:32.334Z,50
2016-04-30T05:41:32.289Z,50
2016-04-30T05:42:32.135Z,50
2016-04-30T05:43:32.092Z,50
2016-04-30T05:44:31.907Z,50
2016-04-30T05:45:32.051Z,50
2016-04-30T05:46:32.162Z,50
2016-04-30T05:47:31.821Z,50
2016-04-30T05:48:31.949Z,50
2016-04-30T05:49:32.436Z,55
2016-04-30T05:50:32.048Z,55
2016-04-30T05:51:31.894Z,55
2016-04-30T05:52:31.850Z,55
2016-04-30T05:53:31.837Z,55
2016-04-30T05:54:31.949Z,60
2016-04-30T05:55:31.920Z,60
2016-04-30T05:56:31.752Z,60
2016-04-30T05:57:31.864Z,60
2016-04-30T05:58:31.692Z,60
2016-04-30T05:59:31.664Z,60
2016-04-30T06:00:31.636Z,65
2016-04-30T06:01:31.621Z,65
2016-04-30T06:02:31.733Z,70
2016-04-30T06:03:31.565Z,75
2016-04-30T06:04:31.614Z,80
2016-04-30T06:05:31.508Z,80
2016-04-30T06:06:31.494Z,85
2016-04-30T06:07:31.622Z,90
2016-04-30T06:08:31.610Z,95
2016-04-30T06:09:31.409Z,100
2016-04-30T06:10:31.521Z,100
2016-04-30T06:11:31.508Z,105
2016-04-30T06:12:31.324Z,110
2016-04-30T06:13:31.451Z,115
2016-04-30T06:14:31.438Z,125
2016-04-30T06:15:31.393Z,135
2016-04-30T06:16:31.381Z,135
2016-04-30T06:17:31.368Z,135
2016-04-30T06:18:31.323Z,135
2016-04-30T06:19:31.154Z,130
2016-04-30T06:20:31.267Z,130
2016-04-30T06:21:31.238Z,125
2016-04-30T06:22:31.240Z,125
2016-04-30T06:23:31.050Z,130
2016-04-30T06:24:31.194Z,130
2016-04-30T06:25:31.133Z,130
2016-04-30T06:26:31.121Z,135
2016-04-30T06:27:31.092Z,135
2016-04-30T06:28:31.064Z,130
2016-04-30T06:29:31.050Z,130
2016-04-30T06:30:31.022Z,125
2016-04-30T06:31:30.994Z,125
2016-04-30T06:32:30.966Z,130
2016-04-30T06:33:30.796Z,130
2016-04-30T06:34:30.658Z,135
2016-04-30T06:35:30.879Z,140
2016-04-30T06:36:30.866Z,145
2016-04-30T06:37:30.682Z,145
2016-04-30T06:38:30.653Z,150
2016-04-30T06:39:30.343Z,150
2016-04-30T06:40:30.768Z,155
2016-04-30T06:41:30.427Z,155
2016-04-30T06:42:30.554Z,160
2016-04-30T06:43:30.682Z,165
2016-04-30T06:44:30.684Z,160
2016-04-30T06:45:30.640Z,160
2016-04-30T06:46:30.456Z,155
2016-04-30T06:47:30.427Z,155
2016-04-30T06:48:30.414Z,155
2016-04-30T06:49:32.386Z,150
2016-04-30T06:50:30.342Z,150
2016-04-30T06:51:30.501Z,150
2016-04-30T06:52:30.456Z,150
2016-04-30T06:53:30.286Z,150
2016-04-30T06:54:30.400Z,155
2016-04-30T06:55:30.387Z,155
2016-04-30T06:56:30.342Z,155
2016-04-30T06:57:30.188Z,155
2016-04-30T06:58:30.003Z,155
2016-04-30T06:59:30.116Z,160
2016-04-30T07:00:29.963Z,170
2016-04-30T07:01:29.934Z,180
2016-04-30T07:02:30.046Z,190
2016-04-30T07:03:30.174Z,205
2016-04-30T07:04:30.052Z,215
2016-04-30T07:05:29.991Z,225
2016-04-30T07:06:29.946Z,230
2016-04-30T07:07:29.935Z,235
2016-04-30T07:08:30.062Z,240
2016-04-30T07:09:30.033Z,250
2016-04-30T07:10:29.708Z,255
2016-04-30T07:11:29.992Z,255
2016-04-30T07:12:29.823Z,255
2016-04-30T07:13:29.779Z,255
2016-04-30T07:14:29.750Z,260
2016-04-30T07:15:29.721Z,260
2016-04-30T07:16:29.865Z,265
2016-04-30T07:17:29.852Z,265
2016-04-30T07:18:29.823Z,265
2016-04-30T07:19:29.732Z,265
2016-04-30T07:20:29.625Z,260
2016-04-30T07:21:29.440Z,255
2016-04-30T07:22:29.568Z,250
2016-04-30T07:23:29.540Z,240
2016-04-30T07:24:29.667Z,230
2016-04-30T07:25:29.483Z,225
2016-04-30T07:26:29.470Z,220
2016-04-30T07:27:29.597Z,220
2016-04-30T07:28:29.569Z,225
2016-04-30T07:29:29.384Z,225
2016-04-30T07:30:29.528Z,230
2016-04-30T07:31:29.342Z,230
2016-04-30T07:32:29.470Z,235
2016-04-30T07:33:29.441Z,245
2016-04-30T07:34:30.975Z,250
2016-04-30T07:35:29.275Z,260
2016-04-30T07:36:29.216Z,270
2016-04-30T07:37:29.046Z,275
2016-04-30T07:38:29.174Z,285
2016-04-30T07:39:29.302Z,290
2016-04-30T07:40:29.273Z,295
2016-04-30T07:41:28.948Z,300
2016-04-30T07:42:29.247Z,305
2016-04-30T07:43:29.218Z,310
2016-04-30T07:44:29.190Z,310
2016-04-30T07:45:28.709Z,315
2016-04-30T07:46:29.164Z,325
2016-04-30T07:47:29.104Z,330
2016-04-30T07:48:28.951Z,330
2016-04-30T07:49:29.501Z,330
2016-04-30T07:50:28.893Z,330
2016-04-30T07:51:29.037Z,335
2016-04-30T07:52:29.008Z,355
2016-04-30T07:53:28.980Z,355
2016-04-30T07:54:28.951Z,365
2016-04-30T07:55:28.782Z,375
2016-04-30T07:56:28.925Z,395
2016-04-30T07:57:28.881Z,410
2016-04-30T07:58:28.869Z,420
2016-04-30T07:59:28.839Z,420
2016-04-30T08:00:28.670Z,430
2016-04-30T08:01:28.798Z,440
2016-04-30T08:02:28.629Z,450
2016-04-30T08:03:28.741Z,455
2016-04-30T08:04:29.150Z,455
2016-04-30T08:05:28.402Z,455
2016-04-30T08:06:28.546Z,430
2016-04-30T08:07:28.688Z,410
2016-04-30T08:08:28.489Z,410
2016-04-30T08:09:28.617Z,410
2016-04-30T08:10:28.447Z,410
2016-04-30T08:11:28.574Z,405
2016-04-30T08:12:28.546Z,400
2016-04-30T08:13:28.393Z,385
2016-04-30T08:14:28.504Z,395
2016-04-30T08:15:28.507Z,410
2016-04-30T08:16:28.479Z,420
2016-04-30T08:17:28.138Z,430
2016-04-30T08:18:28.281Z,415
2016-04-30T08:19:29.659Z,430
2016-04-30T08:20:28.224Z,475
2016-04-30T08:21:28.367Z,475
2016-04-30T08:22:28.354Z,465
2016-04-30T08:23:28.170Z,460
2016-04-30T08:24:28.298Z,460
2016-04-30T08:25:28.113Z,435
2016-04-30T08:26:28.272Z,420
2016-04-30T08:27:28.242Z,415
2016-04-30T08:28:28.215Z,415
2016-04-30T08:29:28.186Z,425
2016-04-30T08:30:27.860Z,425
2016-04-30T08:31:28.145Z,460
2016-04-30T08:32:28.116Z,460
2016-04-30T08:33:28.103Z,450
2016-04-30T08:34:29.324Z,420
2016-04-30T08:35:28.061Z,390
2016-04-30T08:36:28.063Z,360
2016-04-30T08:37:28.020Z,335
2016-04-30T08:38:27.991Z,305
2016-04-30T08:39:27.993Z,280
2016-04-30T08:40:27.949Z,265
2016-04-30T08:41:27.952Z,245
2016-04-30T08:42:27.908Z,235
2016-04-30T08:43:27.910Z,230
2016-04-30T08:44:27.726Z,215
2016-04-30T08:45:27.885Z,210
2016-04-30T08:46:27.685Z,200
2016-04-30T08:47:27.843Z,200
2016-04-30T08:48:27.799Z,195
2016-04-30T08:49:28.552Z,195
2016-04-30T08:50:27.743Z,195
2016-04-30T08:51:27.714Z,200
2016-04-30T08:52:27.701Z,200
2016-04-30T08:53:27.532Z,205
2016-04-30T08:54:27.503Z,205
2016-04-30T08:55:27.630Z,210
2016-04-30T08:56:27.633Z,210
2016-04-30T08:57:27.605Z,210
2016-04-30T08:58:27.405Z,210
2016-04-30T08:59:27.547Z,210
2016-04-30T09:00:27.535Z,215
2016-04-30T09:01:27.506Z,220
2016-04-30T09:02:27.478Z,220
2016-04-30T09:03:27.449Z,235
2016-04-30T09:04:27.296Z,235
2016-04-30T09:05:27.408Z,240
2016-04-30T09:06:27.239Z,245
2016-04-30T09:07:27.382Z,255
2016-04-30T09:08:27.197Z,265
2016-04-30T09:09:27.325Z,270
2016-04-30T09:10:27.296Z,280
2016-04-30T09:11:27.298Z,280
2016-04-30T09:12:26.957Z,280
2016-04-30T09:13:27.085Z,285
2016-04-30T09:14:27.073Z,290
2016-04-30T09:15:27.200Z,305
2016-04-30T09:16:27.171Z,325
2016-04-30T09:17:27.143Z,345
2016-04-30T09:18:27.130Z,365
2016-04-30T09:19:27.273Z,385
2016-04-30T09:20:27.104Z,415
2016-04-30T09:21:26.904Z,425
2016-04-30T09:22:27.048Z,445
2016-04-30T09:23:27.034Z,440
2016-04-30T09:24:27.006Z,450
2016-04-30T09:25:26.696Z,440
2016-04-30T09:26:26.965Z,425
2016-04-30T09:27:26.935Z,435
2016-04-30T09:28:26.922Z,450
2016-04-30T09:29:26.753Z,440
2016-04-30T09:30:26.881Z,425
2016-04-30T09:31:26.836Z,415
2016-04-30T09:32:26.683Z,405
2016-04-30T09:33:26.514Z,395
2016-04-30T09:34:27.548Z,390
2016-04-30T09:35:26.785Z,375
2016-04-30T09:36:26.726Z,355
2016-04-30T09:37:26.728Z,350
2016-04-30T09:38:26.543Z,345
2016-04-30T09:39:26.686Z,345
2016-04-30T09:40:26.502Z,345
2016-04-30T09:41:26.630Z,345
2016-04-30T09:42:26.616Z,345
2016-04-30T09:43:26.604Z,355
2016-04-30T09:44:26.574Z,365
2016-04-30T09:45:26.422Z,385
2016-04-30T09:46:26.377Z,395
2016-04-30T09:47:26.504Z,405
2016-04-30T09:48:26.352Z,410
2016-04-30T09:49:27.463Z,415
2016-04-30T09:50:26.278Z,420
2016-04-30T09:51:26.298Z,425
2016-04-30T09:52:26.409Z,425
2016-04-30T09:53:26.381Z,430
2016-04-30T09:54:26.212Z,435
2016-04-30T09:55:26.386Z,445
2016-04-30T09:56:26.326Z,455
2016-04-30T09:57:25.984Z,450
2016-04-30T09:58:26.128Z,445
2016-04-30T09:59:26.272Z,460
2016-04-30T10:00:26.243Z,470
2016-04-30T10:01:26.074Z,475
2016-04-30T10:02:26.202Z,480
2016-04-30T10:03:26.173Z,485
2016-04-30T10:04:26.848Z,460
2016-04-30T10:05:26.131Z,465
2016-04-30T10:06:25.963Z,460
2016-04-30T10:07:25.949Z,465
2016-04-30T10:08:25.921Z,465
2016-04-30T10:09:25.892Z,470
2016-04-30T10:10:26.035Z,465
2016-04-30T10:11:25.866Z,460
2016-04-30T10:12:25.994Z,445
2016-04-30T10:13:25.824Z,425
2016-04-30T10:14:25.797Z,415
2016-04-30T10:15:25.940Z,410
2016-04-30T10:16:25.771Z,415
2016-04-30T10:17:25.570Z,420
2016-04-30T10:18:25.713Z,430
2016-04-30T10:19:26.310Z,415
2016-04-30T10:20:25.687Z,395
2016-04-30T10:21:25.675Z,390
2016-04-30T10:22:25.787Z,400
2016-04-30T10:23:25.618Z,400
2016-04-30T10:24:25.762Z,395
2016-04-30T10:25:25.748Z,400
2016-04-30T10:26:25.703Z,405
2016-04-30T10:27:25.395Z,415
2016-04-30T10:28:25.537Z,410
2016-04-30T10:29:25.509Z,395
2016-04-30T10:30:25.637Z,385
2016-04-30T10:31:25.451Z,385
2016-04-30T10:32:25.611Z,390
2016-04-30T10:33:25.582Z,400
2016-04-30T10:34:25.881Z,415
2016-04-30T10:35:25.525Z,430
2016-04-30T10:36:25.371Z,440
2016-04-30T10:37:25.359Z,445
2016-04-30T10:38:25.174Z,450
2016-04-30T10:39:25.302Z,455
2016-04-30T10:40:25.445Z,465
2016-04-30T10:41:25.416Z,470
2016-04-30T10:42:25.231Z,460
2016-04-30T10:43:25.391Z,440
2016-04-30T10:44:25.361Z,425
2016-04-30T10:45:25.333Z,405
2016-04-30T10:46:25.164Z,385
2016-04-30T10:47:25.151Z,355
2016-04-30T10:48:25.279Z,345
2016-04-30T10:49:25.610Z,345
2016-04-30T10:50:25.081Z,360
2016-04-30T10:51:25.224Z,375
2016-04-30T10:52:24.882Z,390
2016-04-30T10:53:25.183Z,400
2016-04-30T10:54:25.186Z,410
2016-04-30T10:55:24.829Z,415
2016-04-30T10:56:25.113Z,405
2016-04-30T10:57:25.100Z,395
2016-04-30T10:58:25.103Z,375
2016-04-30T10:59:24.887Z,360
2016-04-30T11:00:24.873Z,355
2016-04-30T11:01:25.017Z,355
2016-04-30T11:02:24.863Z,360
2016-04-30T11:03:24.820Z,375
2016-04-30T11:04:25.994Z,375
2016-04-30T11:05:24.949Z,375
2016-04-30T11:06:24.781Z,360
2016-04-30T11:07:24.908Z,335
2016-04-30T11:08:24.722Z,295
2016-04-30T11:09:24.726Z,260
2016-04-30T11:10:24.839Z,240
2016-04-30T11:11:24.669Z,225
2016-04-30T11:12:24.796Z,220
2016-04-30T11:13:24.783Z,220
2016-04-30T11:14:24.589Z,220
2016-04-30T11:15:24.744Z,235
2016-04-30T11:16:24.704Z,255
2016-04-30T11:17:24.749Z,270
2016-04-30T11:18:24.674Z,275
2016-04-30T11:19:24.990Z,270
2016-04-30T11:20:24.493Z,250
2016-04-30T11:21:24.604Z,235
2016-04-30T11:22:24.279Z,215
2016-04-30T11:23:24.562Z,200
2016-04-30T11:24:24.237Z,195
2016-04-30T11:25:24.506Z,200
2016-04-30T11:26:24.492Z,200
2016-04-30T11:27:24.464Z,205
2016-04-30T11:28:24.467Z,210
2016-04-30T11:29:24.281Z,215
2016-04-30T11:30:24.425Z,210
2016-04-30T11:31:24.240Z,210
2016-04-30T11:32:24.367Z,210
2016-04-30T11:33:24.198Z,220
2016-04-30T11:34:24.780Z,250
2016-04-30T11:35:24.314Z,280
2016-04-30T11:36:24.301Z,320
2016-04-30T11:37:24.116Z,360
2016-04-30T11:38:24.086Z,385
2016-04-30T11:39:24.230Z,420
2016-04-30T11:40:24.233Z,435
2016-04-30T11:41:24.032Z,435
2016-04-30T11:42:24.177Z,435
2016-04-30T11:43:24.147Z,430
2016-04-30T11:44:24.119Z,435
2016-04-30T11:45:24.091Z,445
2016-04-30T11:46:24.078Z,455
2016-04-30T11:47:24.080Z,475
2016-04-30T11:48:23.895Z,485
2016-04-30T11:49:26.085Z,485
2016-04-30T11:50:24.010Z,475
2016-04-30T11:51:23.982Z,470
2016-04-30T11:52:23.968Z,475
2016-04-30T11:53:23.940Z,490
2016-04-30T11:54:23.911Z,495
2016-04-30T11:55:23.742Z,495
2016-04-30T11:56:23.885Z,490
2016-04-30T11:57:23.857Z,500
2016-04-30T11:58:23.844Z,495
2016-04-30T11:59:23.518Z,485
2016-04-30T12:00:23.646Z,480
2016-04-30T12:01:23.774Z,475
2016-04-30T12:02:23.777Z,465
2016-04-30T12:03:23.732Z,465
2016-04-30T12:04:23.797Z,455
2016-04-30T12:05:23.551Z,445
2016-04-30T12:06:23.537Z,435
2016-04-30T12:07:23.665Z,425
2016-04-30T12:08:23.637Z,410
2016-04-30T12:09:23.624Z,390
2016-04-30T12:10:23.594Z,395
2016-04-30T12:11:23.566Z,405
2016-04-30T12:12:23.569Z,420
2016-04-30T12:13:23.556Z,435
2016-04-30T12:14:23.512Z,445
2016-04-30T12:15:23.343Z,465
2016-04-30T12:16:23.502Z,480
2016-04-30T12:17:23.457Z,500
2016-04-30T12:18:23.288Z,500
2016-04-30T12:19:23.479Z,465
2016-04-30T12:20:23.419Z,480
2016-04-30T12:21:23.265Z,485
2016-04-30T12:22:23.362Z,470
2016-04-30T12:23:23.598Z,455
2016-04-30T12:24:23.335Z,445
2016-04-30T12:25:23.323Z,440
2016-04-30T12:26:23.154Z,425
2016-04-30T12:27:23.110Z,420
2016-04-30T12:28:23.096Z,365
2016-04-30T12:29:23.240Z,365
2016-04-30T12:30:23.212Z,420
2016-04-30T12:31:23.198Z,450
2016-04-30T12:32:23.200Z,475
2016-04-30T12:33:23.000Z,430
2016-04-30T12:34:23.175Z,375
2016-04-30T12:35:22.959Z,390
2016-04-30T12:36:22.946Z,435
2016-04-30T12:37:23.074Z,425
2016-04-30T12:38:23.088Z,435
2016-04-30T12:39:23.115Z,460
2016-04-30T12:40:23.096Z,460
2016-04-30T12:41:22.999Z,425
2016-04-30T12:42:23.167Z,380
2016-04-30T12:43:23.172Z,375
2016-04-30T12:44:23.018Z,390
2016-04-30T12:45:23.004Z,395
2016-04-30T12:46:23.178Z,425
2016-04-30T12:47:23.164Z,445
2016-04-30T12:48:22.850Z,405
2016-04-30T12:49:23.171Z,415
2016-04-30T12:50:22.960Z,410
2016-04-30T12:51:23.124Z,390
2016-04-30T12:52:23.101Z,375
2016-04-30T12:53:23.077Z,360
2016-04-30T12:54:23.066Z,365
2016-04-30T12:55:22.898Z,365
2016-04-30T12:56:22.872Z,365
2016-04-30T12:57:22.861Z,365
2016-04-30T12:58:23.006Z,375
2016-04-30T12:59:22.853Z,390
2016-04-30T13:00:22.965Z,405
2016-04-30T13:01:22.938Z,415
2016-04-30T13:02:22.768Z,425
2016-04-30T13:03:22.600Z,435
2016-04-30T13:04:22.916Z,425
2016-04-30T13:05:22.731Z,425
2016-04-30T13:06:22.703Z,395
2016-04-30T13:07:22.674Z,370
2016-04-30T13:08:22.489Z,340
2016-04-30T13:09:22.805Z,320
2016-04-30T13:10:22.776Z,310
2016-04-30T13:11:22.748Z,315
2016-04-30T13:12:22.579Z,325
2016-04-30T13:13:22.425Z,335
2016-04-30T13:14:22.693Z,340
2016-04-30T13:15:22.680Z,330
2016-04-30T13:16:22.496Z,325
2016-04-30T13:17:22.639Z,325
2016-04-30T13:18:22.627Z,320
2016-04-30T13:19:23.864Z,320
2016-04-30T13:20:22.131Z,315
2016-04-30T13:21:22.555Z,315
2016-04-30T13:22:22.543Z,310
2016-04-30T13:23:22.546Z,290
2016-04-30T13:24:22.502Z,270
2016-04-30T13:25:22.316Z,245
2016-04-30T13:26:22.476Z,230
2016-04-30T13:27:22.463Z,220
2016-04-30T13:28:22.449Z,195
2016-04-30T13:29:22.406Z,180
2016-04-30T13:30:22.220Z,165
2016-04-30T13:31:22.364Z,150
2016-04-30T13:32:22.023Z,140
2016-04-30T13:33:22.307Z,130
2016-04-30T13:34:23.748Z,115
2016-04-30T13:35:22.125Z,105
2016-04-30T13:36:22.267Z,100
2016-04-30T13:37:22.224Z,90
2016-04-30T13:38:22.195Z,80
2016-04-30T13:39:22.198Z,65
2016-04-30T13:40:22.169Z,60
2016-04-30T13:41:21.985Z,55
2016-04-30T13:42:22.128Z,60
2016-04-30T13:43:21.787Z,60
2016-04-30T13:44:22.103Z,60
2016-04-30T13:45:22.058Z,55
2016-04-30T13:46:22.045Z,55
2016-04-30T13:47:22.016Z,60
2016-04-30T13:48:22.003Z,65
2016-04-30T13:49:24.397Z,70
2016-04-30T13:50:21.946Z,80
2016-04-30T13:51:21.918Z,75
2016-04-30T13:52:21.624Z,65
2016-04-30T13:53:21.721Z,60
2016-04-30T13:54:21.848Z,55
2016-04-30T13:55:21.835Z,50
2016-04-30T13:56:21.807Z,45
2016-04-30T13:57:21.810Z,45
2016-04-30T13:58:21.765Z,40
2016-04-30T13:59:21.737Z,40
2016-04-30T14:00:21.724Z,35
2016-04-30T14:01:21.695Z,40
2016-04-30T14:02:21.682Z,40
2016-04-30T14:03:21.654Z,45
2016-04-30T14:04:23.437Z,50
2016-04-30T14:05:21.612Z,50
2016-04-30T14:06:21.583Z,50
2016-04-30T14:07:21.554Z,50
2016-04-30T14:08:21.557Z,50
2016-04-30T14:09:21.201Z,50